Time;durP1;ratioP1;P1;durP2;ratioP2;P2;SDS_P1;SDS_P2;PMS_P1;PMS_P2;Temp;Humidity;BMP_temperature;BMP_pressure;BME280_temperature;BME280_humidity;BME280_pressure;Samples;Min_cycle;Max_cycle;Signal;HPM_P1;HPM_P2
2021/11/24 00:02:24;;;;;;;;;;;;;;;;;;5126151;27;19916;-73
2021/11/24 00:04:50;;;;;;;;;;;;;;;;;;5116810;28;20358;-74
2021/11/24 00:07:16;;;;;;;;;;;;;;;;;;5121816;27;19927;-74
2021/11/24 00:09:42;;;;;;;;;;;;;;;;;;5122037;27;19920;-74
2021/11/24 00:12:08;;;;;;;;;;;;;;;;;;5120382;27;19945;-74
2021/11/24 00:14:33;;;;;;;;;;;;;;;;;;5123292;27;20293;-73
2021/11/24 00:16:59;;;;;;;;;;;;;;;;;;5116154;28;20003;-73
2021/11/24 00:19:24;;;;;;;;;;;;;;;;;;5124139;27;20409;-74
2021/11/24 00:21:50;;;;;;;;;;;;;;;;;;5136790;27;19920;-73
2021/11/24 00:24:15;;;;;;;;;;;;;;;;;;5116474;28;19927;-74
2021/11/24 00:26:41;;;;;;;;;;;;;;;;;;5132534;27;19915;-75
2021/11/24 00:29:06;;;;;;;;;;;;;;;;;;5116459;27;19923;-73
2021/11/24 00:31:32;;;;;;;;;;;;;;;;;;5120595;27;19916;-73
2021/11/24 00:33:59;;;;;;;;;;;;;;;;;;5120271;27;19965;-74
2021/11/24 00:36:25;;;;;;;;;;;;;;;;;;5115978;27;20318;-75
2021/11/24 00:38:50;;;;;;;;;;;;;;;;;;5141312;27;20014;-74
2021/11/24 00:41:16;;;;;;;;;;;;;;;;;;5131395;27;20370;-73
2021/11/24 00:43:41;;;;;;;;;;;;;;;;;;5129461;27;19940;-73
2021/11/24 00:46:06;;;;;;;;;;;;;;;;;;5117840;27;19920;-74
2021/11/24 00:48:32;;;;;;;;;;;;;;;;;;5115733;27;19916;-73
2021/11/24 00:50:57;;;;;;;;;;;;;;;;;;5117284;27;19959;-74
2021/11/24 00:53:23;;;;;;;;;;;;;;;;;;5134891;27;19915;-73
2021/11/24 00:55:48;;;;;;;;;;;;;;;;;;5133802;27;19930;-74
2021/11/24 00:58:14;;;;;;;;;;;;;;;;;;5136125;27;20006;-74
2021/11/24 01:00:39;;;;;;;;;;;;;;;;;;5127391;27;19916;-73
2021/11/24 01:03:05;;;;;;;;;;;;;;;;;;5115472;27;19927;-73
2021/11/24 01:05:31;;;;;;;;;;;;;;;;;;5126011;27;19919;-75
2021/11/24 01:07:56;;;;;;;;;;;;;;;;;;5121695;27;20374;-74
2021/11/24 01:10:22;;;;;;;;;;;;;;;;;;5120409;27;19943;-73
2021/11/24 01:12:48;;;;;;;;;;;;;;;;;;5117966;27;19916;-73
2021/11/24 01:15:14;;;;;;;;;;;;;;;;;;5116841;27;19930;-74
2021/11/24 01:17:40;;;;;;;;;;;;;;;;;;5131687;27;19945;-74
2021/11/24 01:20:05;;;;;;;;;;;;;;;;;;5118474;27;19919;-74
2021/11/24 01:22:31;;;;;;;;;;;;;;;;;;5119972;27;19919;-74
2021/11/24 01:24:56;;;;;;;;;;;;;;;;;;5117230;27;19924;-75
2021/11/24 01:27:22;;;;;;;;;;;;;;;;;;5122405;27;19920;-75
2021/11/24 01:29:47;;;;;;;;;;;;;;;;;;5117341;27;19927;-74
2021/11/24 01:32:13;;;;;;;;;;;;;;;;;;5114946;28;19915;-72
2021/11/24 01:34:38;;;;;;;;;;;;;;;;;;5123349;27;20427;-72
2021/11/24 01:37:04;;;;;;;;;;;;;;;;;;5135412;27;19915;-72
2021/11/24 01:39:29;;;;;;;;;;;;;;;;;;5134004;27;20271;-72
2021/11/24 01:41:55;;;;;;;;;;;;;;;;;;5135258;27;19941;-73
2021/11/24 01:44:21;;;;;;;;;;;;;;;;;;5123483;27;19920;-73
2021/11/24 01:46:51;;;;;;;;;;;;;;;;;;5114764;28;20320;-72
2021/11/24 01:49:16;;;;;;;;;;;;;;;;;;5114863;28;20014;-73
2021/11/24 01:51:42;;;;;;;;;;;;;;;;;;5114622;28;20011;-72
2021/11/24 01:54:08;;;;;;;;;;;;;;;;;;5113258;28;19915;-73
2021/11/24 01:56:33;;;;;;;;;;;;;;;;;;5114490;28;20006;-72
2021/11/24 01:58:58;;;;;;;;;;;;;;;;;;5114123;28;19982;-73
2021/11/24 02:01:24;;;;;;;;;;;;;;;;;;5113189;28;19939;-72
2021/11/24 02:03:49;;;;;;;;;;;;;;;;;;5129747;27;19912;-73
2021/11/24 02:06:15;;;;;;;;;;;;;;;;;;5134910;27;19916;-72
2021/11/24 02:08:40;;;;;;;;;;;;;;;;;;5135580;27;19916;-72
2021/11/24 02:11:06;;;;;;;;;;;;;;;;;;5134975;27;19967;-72
2021/11/24 02:13:31;;;;;;;;;;;;;;;;;;5135077;28;19915;-72
2021/11/24 02:15:57;;;;;;;;;;;;;;;;;;5121826;27;20294;-72
2021/11/24 02:18:24;;;;;;;;;;;;;;;;;;5113535;28;20149;-72
2021/11/24 02:20:50;;;;;;;;;;;;;;;;;;5114343;28;19955;-73
2021/11/24 02:23:16;;;;;;;;;;;;;;;;;;5114306;28;19969;-72
2021/11/24 02:25:42;;;;;;;;;;;;;;;;;;5114358;28;20349;-72
2021/11/24 02:28:08;;;;;;;;;;;;;;;;;;5114155;28;19923;-72
2021/11/24 02:30:34;;;;;;;;;;;;;;;;;;5114285;28;20366;-72
2021/11/24 02:33:00;;;;;;;;;;;;;;;;;;5114486;28;20019;-72
2021/11/24 02:35:25;;;;;;;;;;;;;;;;;;5114787;28;20386;-72
2021/11/24 02:37:51;;;;;;;;;;;;;;;;;;5135768;28;19904;-72
2021/11/24 02:40:16;;;;;;;;;;;;;;;;;;5131143;28;19923;-72
2021/11/24 02:42:42;;;;;;;;;;;;;;;;;;5114797;28;20369;-73
2021/11/24 02:45:08;;;;;;;;;;;;;;;;;;5114412;28;19955;-73
2021/11/24 02:47:33;;;;;;;;;;;;;;;;;;5113936;28;19916;-73
2021/11/24 02:50:03;;;;;;;;;;;;;;;;;;5112773;28;19916;-72
2021/11/24 02:52:29;;;;;;;;;;;;;;;;;;5113978;28;19961;-74
2021/11/24 02:54:57;;;;;;;;;;;;;;;;;;5112681;28;19916;-73
2021/11/24 02:57:36;;;;;;;;;;;;;;;;;;5114161;28;19955;-73
2021/11/24 03:00:12;;;;;;;;;;;;;;;;;;5113992;28;19915;-72
2021/11/24 03:02:38;;;;;;;;;;;;;;;;;;5114168;28;19916;-72
2021/11/24 03:05:03;;;;;;;;;;;;;;;;;;5112519;28;19916;-72
2021/11/24 03:07:29;;;;;;;;;;;;;;;;;;5129554;28;19915;-72
2021/11/24 03:09:54;;;;;;;;;;;;;;;;;;5115327;28;19969;-72
2021/11/24 03:12:20;;;;;;;;;;;;;;;;;;5117825;28;19947;-73
2021/11/24 03:14:46;;;;;;;;;;;;;;;;;;5117747;28;19921;-73
2021/11/24 03:17:11;;;;;;;;;;;;;;;;;;5117540;28;19926;-73
2021/11/24 03:19:37;;;;;;;;;;;;;;;;;;5133429;27;20374;-73
2021/11/24 03:22:03;;;;;;;;;;;;;;;;;;5117531;28;19934;-73
2021/11/24 03:24:28;;;;;;;;;;;;;;;;;;5117406;28;19938;-73
2021/11/24 03:26:53;;;;;;;;;;;;;;;;;;5117537;28;19922;-73
2021/11/24 03:29:19;;;;;;;;;;;;;;;;;;5117409;28;19920;-74
2021/11/24 03:31:45;;;;;;;;;;;;;;;;;;5117320;28;20001;-73
2021/11/24 03:34:10;;;;;;;;;;;;;;;;;;5116026;28;19915;-73
2021/11/24 03:36:36;;;;;;;;;;;;;;;;;;5117205;28;19920;-73
2021/11/24 03:39:02;;;;;;;;;;;;;;;;;;5117222;28;19941;-73
2021/11/24 03:41:28;;;;;;;;;;;;;;;;;;5117064;28;19923;-73
2021/11/24 03:43:53;;;;;;;;;;;;;;;;;;5116973;28;19916;-73
2021/11/24 03:46:19;;;;;;;;;;;;;;;;;;5116870;28;20385;-74
2021/11/24 03:48:44;;;;;;;;;;;;;;;;;;5117051;28;19922;-73
2021/11/24 03:51:10;;;;;;;;;;;;;;;;;;5116814;28;19916;-73
2021/11/24 03:53:40;;;;;;;;;;;;;;;;;;5116847;28;20030;-74
2021/11/24 03:56:05;;;;;;;;;;;;;;;;;;5116908;28;19969;-73
2021/11/24 03:58:31;;;;;;;;;;;;;;;;;;5117266;27;19915;-74
2021/11/24 04:00:56;;;;;;;;;;;;;;;;;;5116673;28;20393;-73
2021/11/24 04:03:22;;;;;;;;;;;;;;;;;;5116631;28;19961;-74
2021/11/24 04:05:52;;;;;;;;;;;;;;;;;;5116663;28;19916;-74
2021/11/24 04:08:17;;;;;;;;;;;;;;;;;;5116517;28;20323;-74
2021/11/24 04:10:43;;;;;;;;;;;;;;;;;;5116604;28;19959;-74
2021/11/24 04:13:08;;;;;;;;;;;;;;;;;;5116502;28;19962;-73
2021/11/24 04:15:33;;;;;;;;;;;;;;;;;;5116317;28;20394;-74
2021/11/24 04:17:59;;;;;;;;;;;;;;;;;;5116611;28;19919;-74
2021/11/24 04:20:24;;;;;;;;;;;;;;;;;;5116132;28;19916;-74
2021/11/24 04:22:50;;;;;;;;;;;;;;;;;;5116297;28;19919;-74
2021/11/24 04:25:17;;;;;;;;;;;;;;;;;;5116226;28;20359;-74
2021/11/24 04:27:43;;;;;;;;;;;;;;;;;;5116418;28;19963;-78
2021/11/24 04:30:09;;;;;;;;;;;;;;;;;;5116218;28;19923;-74
2021/11/24 04:32:34;;;;;;;;;;;;;;;;;;5116085;28;19923;-77
2021/11/24 04:35:00;;;;;;;;;;;;;;;;;;5116069;28;20278;-73
2021/11/24 04:37:25;;;;;;;;;;;;;;;;;;5130656;27;19922;-75
2021/11/24 04:39:51;;;;;;;;;;;;;;;;;;5135910;27;19927;-74
2021/11/24 04:42:17;;;;;;;;;;;;;;;;;;5133140;27;20383;-74
2021/11/24 04:44:42;;;;;;;;;;;;;;;;;;5135777;27;19922;-77
2021/11/24 04:47:08;;;;;;;;;;;;;;;;;;5135758;27;20377;-75
2021/11/24 04:49:33;;;;;;;;;;;;;;;;;;5135706;27;19922;-84
2021/11/24 04:51:58;;;;;;;;;;;;;;;;;;5135821;27;19915;-85
2021/11/24 04:54:24;;;;;;;;;;;;;;;;;;5136302;27;19916;-86
2021/11/24 04:56:49;;;;;;;;;;;;;;;;;;5136318;27;20425;-89
2021/11/24 04:59:15;;;;;;;;;;;;;;;;;;5136316;27;19922;-87
2021/11/24 05:01:42;;;;;;;;;;;;;;;;;;5136244;27;19954;-90
2021/11/24 05:04:07;;;;;;;;;;;;;;;;;;5136090;27;19965;-89
2021/11/24 05:06:33;;;;;;;;;;;;;;;;;;5135924;27;19916;-88
2021/11/24 05:08:58;;;;;;;;;;;;;;;;;;5135986;27;19915;-89
2021/11/24 05:11:24;;;;;;;;;;;;;;;;;;5136020;27;20298;-83
2021/11/24 05:13:55;;;;;;;;;;;;;;;;;;5135858;27;19950;-85
2021/11/24 05:16:23;;;;;;;;;;;;;;;;;;5135882;27;19968;-85
2021/11/24 05:18:49;;;;;;;;;;;;;;;;;;5136019;27;19915;-89
2021/11/24 05:21:32;;;;;;;;;;;;;;;;;;5134488;27;19915;-88
2021/11/24 05:23:58;;;;;;;;;;;;;;;;;;5124939;27;19959;-88
2021/11/24 05:26:24;;;;;;;;;;;;;;;;;;5126350;27;19919;-88
2021/11/24 05:28:51;;;;;;;;;;;;;;;;;;5115160;28;19916;-87
2021/11/24 05:31:16;;;;;;;;;;;;;;;;;;5115341;28;19912;-89
2021/11/24 05:33:43;;;;;;;;;;;;;;;;;;5124172;27;20381;-90
2021/11/24 05:36:08;;;;;;;;;;;;;;;;;;5131574;27;19916;-86
2021/11/24 05:38:34;;;;;;;;;;;;;;;;;;5124135;27;19915;-88
2021/11/24 05:40:59;;;;;;;;;;;;;;;;;;5121672;27;19920;-88
2021/11/24 05:43:27;;;;;;;;;;;;;;;;;;5135709;27;19916;-83
2021/11/24 05:48:19;;;;;;;;;;;;;;;;;;5133590;27;20320;-88
2021/11/24 05:50:46;;;;;;;;;;;;;;;;;;5120034;27;19920;-83
2021/11/24 05:53:12;;;;;;;;;;;;;;;;;;5125211;27;19926;-92
2021/11/24 05:55:38;;;;;;;;;;;;;;;;;;5135161;27;19949;-89
2021/11/24 05:58:03;;;;;;;;;;;;;;;;;;5135045;27;19922;-84
2021/11/24 06:00:29;;;;;;;;;;;;;;;;;;5129524;27;19925;-89
2021/11/24 06:02:54;;;;;;;;;;;;;;;;;;5131156;27;19919;-79
2021/11/24 06:05:20;;;;;;;;;;;;;;;;;;5148427;27;19922;-76
2021/11/24 06:07:45;;;;;;;;;;;;;;;;;;5143527;27;19925;-83
2021/11/24 06:10:11;;;;;;;;;;;;;;;;;;5151902;27;19973;-78
2021/11/24 06:12:37;;;;;;;;;;;;;;;;;;5128689;27;19930;-86
2021/11/24 06:15:03;;;;;;;;;;;;;;;;;;5118682;27;19929;-75
2021/11/24 06:17:28;;;;;;;;;;;;;;;;;;5124244;27;20302;-75
2021/11/24 06:19:54;;;;;;;;;;;;;;;;;;5131897;28;20010;-77
2021/11/24 06:22:19;;;;;;;;;;;;;;;;;;5124656;28;20015;-75
2021/11/24 06:24:45;;;;;;;;;;;;;;;;;;5118034;28;19920;-75
2021/11/24 06:27:10;;;;;;;;;;;;;;;;;;5131262;28;19915;-77
2021/11/24 06:29:36;;;;;;;;;;;;;;;;;;5128241;28;19926;-77
2021/11/24 06:32:01;;;;;;;;;;;;;;;;;;5114329;28;19947;-76
2021/11/24 06:34:27;;;;;;;;;;;;;;;;;;5114164;28;19927;-77
2021/11/24 06:36:53;;;;;;;;;;;;;;;;;;5122334;28;19919;-76
2021/11/24 06:39:22;;;;;;;;;;;;;;;;;;5122414;28;20318;-84
2021/11/24 06:41:48;;;;;;;;;;;;;;;;;;5134138;28;20350;-74
2021/11/24 06:44:13;;;;;;;;;;;;;;;;;;5136876;27;19915;-73
2021/11/24 06:46:39;;;;;;;;;;;;;;;;;;5129775;27;20366;-76
2021/11/24 06:49:04;;;;;;;;;;;;;;;;;;5124378;27;19920;-74
2021/11/24 06:51:30;;;;;;;;;;;;;;;;;;5127330;27;20331;-76
2021/11/24 06:53:55;;;;;;;;;;;;;;;;;;5127756;27;19920;-76
2021/11/24 06:56:20;;;;;;;;;;;;;;;;;;5128411;27;19927;-84
2021/11/24 06:58:46;;;;;;;;;;;;;;;;;;5126530;27;19968;-76
2021/11/24 07:01:11;;;;;;;;;;;;;;;;;;5125691;27;20279;-76
2021/11/24 07:03:37;;;;;;;;;;;;;;;;;;5122865;27;19922;-82
2021/11/24 07:06:02;;;;;;;;;;;;;;;;;;5129062;27;19919;-75
2021/11/24 07:08:28;;;;;;;;;;;;;;;;;;5120329;27;20358;-81
2021/11/24 07:10:53;;;;;;;;;;;;;;;;;;5121917;27;19919;-76
2021/11/24 07:13:19;;;;;;;;;;;;;;;;;;5139238;27;20014;-75
2021/11/24 07:15:44;;;;;;;;;;;;;;;;;;5125689;27;19920;-75
2021/11/24 07:18:10;;;;;;;;;;;;;;;;;;5120387;27;19916;-90
2021/11/24 07:20:35;;;;;;;;;;;;;;;;;;5127542;27;19923;-76
2021/11/24 07:23:01;;;;;;;;;;;;;;;;;;5126465;27;19915;-79
2021/11/24 07:25:28;;;;;;;;;;;;;;;;;;5133749;27;20393;-76
2021/11/24 07:27:54;;;;;;;;;;;;;;;;;;5117404;28;19963;-81
2021/11/24 07:30:21;;;;;;;;;;;;;;;;;;5131540;27;19962;-75
2021/11/24 07:32:47;;;;;;;;;;;;;;;;;;5137946;27;19958;-77
2021/11/24 07:35:12;;;;;;;;;;;;;;;;;;5133537;27;19954;-75
2021/11/24 07:37:38;;;;;;;;;;;;;;;;;;5127817;27;19972;-74
2021/11/24 07:40:05;;;;;;;;;;;;;;;;;;5125570;27;19919;-76
2021/11/24 07:42:30;;;;;;;;;;;;;;;;;;5125148;27;20366;-83
2021/11/24 07:44:56;;;;;;;;;;;;;;;;;;5126845;27;19919;-86
2021/11/24 07:47:21;;;;;;;;;;;;;;;;;;5125369;27;20022;-74
2021/11/24 07:49:47;;;;;;;;;;;;;;;;;;5126616;27;19926;-84
2021/11/24 07:52:12;;;;;;;;;;;;;;;;;;5136389;27;19922;-76
2021/11/24 07:54:37;;;;;;;;;;;;;;;;;;5130885;27;20018;-75
2021/11/24 07:57:03;;;;;;;;;;;;;;;;;;5125270;27;19942;-77
2021/11/24 07:59:29;;;;;;;;;;;;;;;;;;5122266;27;20293;-76
2021/11/24 08:01:54;;;;;;;;;;;;;;;;;;5129670;27;19923;-77
2021/11/24 08:04:19;;;;;;;;;;;;;;;;;;5132424;27;19923;-75
2021/11/24 08:06:45;;;;;;;;;;;;;;;;;;5122966;27;19924;-76
2021/11/24 08:09:10;;;;;;;;;;;;;;;;;;5121997;27;19919;-77
2021/11/24 08:11:36;;;;;;;;;;;;;;;;;;5128450;27;19919;-75
2021/11/24 08:14:01;;;;;;;;;;;;;;;;;;5128035;27;19915;-75
2021/11/24 08:16:27;;;;;;;;;;;;;;;;;;5135803;27;19924;-79
2021/11/24 08:18:53;;;;;;;;;;;;;;;;;;5128627;27;20380;-76
2021/11/24 08:21:18;;;;;;;;;;;;;;;;;;5125386;27;19919;-76
2021/11/24 08:23:44;;;;;;;;;;;;;;;;;;5116536;28;19968;-81
2021/11/24 08:26:09;;;;;;;;;;;;;;;;;;5117140;27;19923;-85
2021/11/24 08:28:35;;;;;;;;;;;;;;;;;;5123517;27;20385;-88
2021/11/24 08:31:00;;;;;;;;;;;;;;;;;;5124485;27;20014;-76
2021/11/24 08:33:26;;;;;;;;;;;;;;;;;;5126584;27;19916;-76
2021/11/24 08:35:51;;;;;;;;;;;;;;;;;;5120552;27;20361;-76
2021/11/24 08:38:17;;;;;;;;;;;;;;;;;;5124375;27;20374;-90
2021/11/24 08:40:43;;;;;;;;;;;;;;;;;;5127573;27;19924;-75
2021/11/24 08:43:09;;;;;;;;;;;;;;;;;;5123344;27;19920;-75
2021/11/24 08:45:35;;;;;;;;;;;;;;;;;;5126922;27;19966;-76
2021/11/24 08:48:02;;;;;;;;;;;;;;;;;;5121329;27;20378;-76
2021/11/24 08:50:28;;;;;;;;;;;;;;;;;;5118899;27;19963;-83
2021/11/24 08:52:54;;;;;;;;;;;;;;;;;;5121550;27;19927;-77
2021/11/24 08:55:20;;;;;;;;;;;;;;;;;;5125345;27;19931;-79
2021/11/24 08:57:47;;;;;;;;;;;;;;;;;;5115590;28;19991;-83
2021/11/24 09:00:14;;;;;;;;;;;;;;;;;;5115610;28;19915;-78
2021/11/24 09:02:43;;;;;;;;;;;;;;;;;;5114261;28;19947;-78
2021/11/24 09:05:09;;;;;;;;;;;;;;;;;;5120703;27;20439;-85
2021/11/24 09:07:35;;;;;;;;;;;;;;;;;;5120506;27;19919;-78
2021/11/24 09:10:02;;;;;;;;;;;;;;;;;;5128250;27;19919;-77
2021/11/24 09:12:27;;;;;;;;;;;;;;;;;;5134474;27;19919;-78
2021/11/24 09:14:53;;;;;;;;;;;;;;;;;;5129747;27;20019;-84
2021/11/24 09:17:18;;;;;;;;;;;;;;;;;;5146115;27;19964;-83
2021/11/24 09:19:45;;;;;;;;;;;;;;;;;;5135846;27;19915;-75
2021/11/24 09:22:11;;;;;;;;;;;;;;;;;;5122381;27;19915;-75
2021/11/24 09:24:37;;;;;;;;;;;;;;;;;;5119803;27;19920;-79
2021/11/24 09:27:11;;;;;;;;;;;;;;;;;;5126361;27;19916;-79
2021/11/24 09:29:36;;;;;;;;;;;;;;;;;;5121431;27;19920;-76
2021/11/24 09:32:04;;;;;;;;;;;;;;;;;;5138836;27;19931;-77
2021/11/24 09:34:31;;;;;;;;;;;;;;;;;;5120525;27;19939;-75
2021/11/24 09:36:56;;;;;;;;;;;;;;;;;;5125121;27;20020;-81
2021/11/24 09:39:22;;;;;;;;;;;;;;;;;;5115957;27;20052;-76
2021/11/24 09:41:48;;;;;;;;;;;;;;;;;;5122337;27;19930;-85
2021/11/24 09:44:13;;;;;;;;;;;;;;;;;;5123773;27;19915;-84
2021/11/24 09:46:49;;;;;;;;;;;;;;;;;;5124101;27;21755;-75
2021/11/24 09:49:15;;;;;;;;;;;;;;;;;;5126418;27;19919;-76
2021/11/24 09:51:41;;;;;;;;;;;;;;;;;;5118886;27;19915;-76
2021/11/24 09:54:09;;;;;;;;;;;;;;;;;;5123735;27;20328;-81
2021/11/24 09:56:36;;;;;;;;;;;;;;;;;;5124628;27;19922;-86
2021/11/24 09:59:02;;;;;;;;;;;;;;;;;;5115391;27;19967;-80
2021/11/24 10:01:27;;;;;;;;;;;;;;;;;;5122929;27;20377;-87
2021/11/24 10:03:53;;;;;;;;;;;;;;;;;;5116216;27;19912;-77
2021/11/24 10:06:20;;;;;;;;;;;;;;;;;;5114453;28;19920;-85
2021/11/24 10:08:46;;;;;;;;;;;;;;;;;;5117985;27;19919;-81
2021/11/24 10:11:11;;;;;;;;;;;;;;;;;;5117621;28;19919;-76
2021/11/24 10:13:37;;;;;;;;;;;;;;;;;;5114177;27;20313;-83
2021/11/24 10:16:02;;;;;;;;;;;;;;;;;;5125385;28;19923;-88
2021/11/24 10:18:29;;;;;;;;;;;;;;;;;;5114128;28;19916;-75
2021/11/24 10:20:57;;;;;;;;;;;;;;;;;;5114403;28;19977;-85
2021/11/24 10:23:24;;;;;;;;;;;;;;;;;;5119146;28;20385;-75
2021/11/24 10:25:53;;;;;;;;;;;;;;;;;;5128031;27;19964;-84
2021/11/24 10:28:29;;;;;;;;;;;;;;;;;;5114333;28;20316;-76
2021/11/24 10:30:56;;;;;;;;;;;;;;;;;;5113225;28;19949;-75
2021/11/24 10:33:25;;;;;;;;;;;;;;;;;;5119784;28;19916;-86
2021/11/24 10:36:08;;;;;;;;;;;;;;;;;;5122315;28;19934;-76
2021/11/24 10:38:38;;;;;;;;;;;;;;;;;;5124196;28;19968;-81
2021/11/24 10:41:04;;;;;;;;;;;;;;;;;;5121797;28;20381;-76
2021/11/24 10:43:38;;;;;;;;;;;;;;;;;;5114075;28;19912;-77
2021/11/24 10:46:04;;;;;;;;;;;;;;;;;;5116740;28;19924;-77
2021/11/24 10:48:30;;;;;;;;;;;;;;;;;;5124459;28;20436;-89
2021/11/24 10:50:56;;;;;;;;;;;;;;;;;;5119943;27;19935;-81
2021/11/24 10:53:21;;;;;;;;;;;;;;;;;;5140009;27;19920;-75
2021/11/24 10:55:47;;;;;;;;;;;;;;;;;;5123839;28;20309;-75
2021/11/24 10:58:24;;;;;;;;;;;;;;;;;;5115558;27;19949;-75
2021/11/24 11:00:51;;;;;;;;;;;;;;;;;;5125095;28;19970;-76
2021/11/24 11:03:16;;;;;;;;;;;;;;;;;;5127003;28;19923;-73
2021/11/24 11:05:44;;;;;;;;;;;;;;;;;;5134473;27;19915;-78
2021/11/24 11:08:11;;;;;;;;;;;;;;;;;;5133199;28;20003;-74
2021/11/24 11:10:41;;;;;;;;;;;;;;;;;;5134593;27;19930;-77
2021/11/24 11:13:08;;;;;;;;;;;;;;;;;;5134489;27;19936;-74
2021/11/24 11:15:43;;;;;;;;;;;;;;;;;;5134483;27;19920;-73
2021/11/24 11:18:10;;;;;;;;;;;;;;;;;;5134675;27;19915;-75
2021/11/24 11:20:43;;;;;;;;;;;;;;;;;;5134345;27;19915;-74
2021/11/24 11:23:19;;;;;;;;;;;;;;;;;;5134684;27;20287;-73
2021/11/24 11:25:46;;;;;;;;;;;;;;;;;;5134316;27;19915;-73
2021/11/24 11:28:12;;;;;;;;;;;;;;;;;;5132879;28;19970;-73
2021/11/24 11:30:39;;;;;;;;;;;;;;;;;;5135212;27;19987;-73
2021/11/24 11:33:04;;;;;;;;;;;;;;;;;;5137887;27;20018;-73
2021/11/24 11:35:30;;;;;;;;;;;;;;;;;;5137832;27;19981;-74
2021/11/24 11:37:57;;;;;;;;;;;;;;;;;;5137847;27;19916;-75
2021/11/24 11:40:23;;;;;;;;;;;;;;;;;;5137746;27;19918;-74
2021/11/24 11:42:49;;;;;;;;;;;;;;;;;;5132149;27;19923;-73
2021/11/24 11:45:15;;;;;;;;;;;;;;;;;;5125568;27;20003;-84
2021/11/24 11:47:44;;;;;;;;;;;;;;;;;;5124055;27;20369;-75
2021/11/24 11:50:09;;;;;;;;;;;;;;;;;;5126759;27;19966;-80
2021/11/24 11:52:35;;;;;;;;;;;;;;;;;;5129628;27;19950;-74
2021/11/24 11:55:15;;;;;;;;;;;;;;;;;;5137393;27;19916;-73
2021/11/24 11:57:44;;;;;;;;;;;;;;;;;;5137714;27;19916;-73
2021/11/24 12:00:09;;;;;;;;;;;;;;;;;;5132630;27;20050;-75
2021/11/24 12:02:46;;;;;;;;;;;;;;;;;;5120405;27;19919;-82
2021/11/24 12:05:11;;;;;;;;;;;;;;;;;;5122987;27;19919;-80
2021/11/24 12:07:57;;;;;;;;;;;;;;;;;;5121597;27;19928;-89
2021/11/24 12:10:42;;;;;;;;;;;;;;;;;;5129172;27;19977;-77
2021/11/24 12:13:08;;;;;;;;;;;;;;;;;;5136979;27;19927;-75
2021/11/24 12:15:33;;;;;;;;;;;;;;;;;;5135362;27;19915;-82
2021/11/24 12:18:17;;;;;;;;;;;;;;;;;;5120461;27;19920;-74
2021/11/24 12:20:44;;;;;;;;;;;;;;;;;;5120701;27;19959;-73
2021/11/24 12:23:14;;;;;;;;;;;;;;;;;;5119376;27;19989;-73
2021/11/24 12:25:40;;;;;;;;;;;;;;;;;;5120916;27;19919;-73
2021/11/24 12:28:07;;;;;;;;;;;;;;;;;;5126008;27;19919;-73
2021/11/24 12:33:07;;;;;;;;;;;;;;;;;;5127256;27;19924;-74
2021/11/24 12:35:33;;;;;;;;;;;;;;;;;;5134508;27;19926;-74
2021/11/24 12:37:59;;;;;;;;;;;;;;;;;;5134487;27;19919;-74
2021/11/24 12:40:35;;;;;;;;;;;;;;;;;;5120544;27;20901;-89
2021/11/24 12:43:03;;;;;;;;;;;;;;;;;;5128797;27;19943;-73
2021/11/24 12:45:29;;;;;;;;;;;;;;;;;;5124830;27;19966;-83
2021/11/24 12:48:05;;;;;;;;;;;;;;;;;;5123685;27;20378;-73
2021/11/24 12:50:31;;;;;;;;;;;;;;;;;;5129420;27;19924;-73
2021/11/24 12:53:00;;;;;;;;;;;;;;;;;;5119783;27;19961;-73
2021/11/24 12:55:26;;;;;;;;;;;;;;;;;;5133646;27;19993;-75
2021/11/24 12:57:51;;;;;;;;;;;;;;;;;;5137453;27;19922;-75
2021/11/24 13:00:23;;;;;;;;;;;;;;;;;;5120885;27;19927;-73
2021/11/24 13:02:49;;;;;;;;;;;;;;;;;;5121991;27;20371;-72
2021/11/24 13:05:15;;;;;;;;;;;;;;;;;;5130091;27;19915;-72
2021/11/24 13:07:40;;;;;;;;;;;;;;;;;;5135921;27;19922;-73
2021/11/24 13:10:06;;;;;;;;;;;;;;;;;;5125845;27;20452;-72
2021/11/24 13:12:34;;;;;;;;;;;;;;;;;;5122728;27;19916;-73
2021/11/24 13:15:00;;;;;;;;;;;;;;;;;;5118774;27;19920;-73
2021/11/24 13:17:30;;;;;;;;;;;;;;;;;;5127410;27;20427;-73
2021/11/24 13:19:59;;;;;;;;;;;;;;;;;;5135831;27;20379;-72
2021/11/24 13:22:35;;;;;;;;;;;;;;;;;;5136132;27;19915;-73
2021/11/24 13:25:07;;;;;;;;;;;;;;;;;;5135928;27;19960;-74
2021/11/24 13:27:39;;;;;;;;;;;;;;;;;;5135493;27;19916;-73
2021/11/24 13:30:05;;;;;;;;;;;;;;;;;;5122781;27;20375;-75
2021/11/24 13:32:31;;;;;;;;;;;;;;;;;;5133976;27;19912;-74
2021/11/24 13:34:57;;;;;;;;;;;;;;;;;;5135531;27;20293;-75
2021/11/24 13:37:26;;;;;;;;;;;;;;;;;;5134189;27;20397;-76
2021/11/24 13:39:53;;;;;;;;;;;;;;;;;;5135433;27;19915;-74
2021/11/24 13:42:18;;;;;;;;;;;;;;;;;;5135480;27;19997;-74
2021/11/24 13:44:48;;;;;;;;;;;;;;;;;;5135275;27;19915;-77
2021/11/24 13:47:14;;;;;;;;;;;;;;;;;;5135400;27;19916;-76
2021/11/24 13:49:43;;;;;;;;;;;;;;;;;;5135277;27;20016;-74
2021/11/24 13:52:10;;;;;;;;;;;;;;;;;;5135310;27;20393;-76
2021/11/24 13:54:46;;;;;;;;;;;;;;;;;;5134827;27;19923;-74
2021/11/24 13:57:12;;;;;;;;;;;;;;;;;;5135224;27;19916;-73
2021/11/24 13:59:38;;;;;;;;;;;;;;;;;;5135102;27;20055;-75
2021/11/24 14:02:24;;;;;;;;;;;;;;;;;;5133712;27;20735;-74
2021/11/24 14:04:50;;;;;;;;;;;;;;;;;;5126033;27;19920;-77
2021/11/24 14:07:17;;;;;;;;;;;;;;;;;;5118642;27;19920;-76
2021/11/24 14:09:44;;;;;;;;;;;;;;;;;;5124360;28;19978;-76
2021/11/24 14:12:16;;;;;;;;;;;;;;;;;;5115658;28;19975;-75
2021/11/24 14:14:46;;;;;;;;;;;;;;;;;;5123428;27;20341;-74
2021/11/24 14:17:12;;;;;;;;;;;;;;;;;;5112759;28;19924;-73
2021/11/24 14:19:38;;;;;;;;;;;;;;;;;;5114467;28;19920;-74
2021/11/24 14:22:04;;;;;;;;;;;;;;;;;;5114449;28;19999;-73
2021/11/24 14:24:30;;;;;;;;;;;;;;;;;;5115526;28;20294;-73
2021/11/24 14:26:57;;;;;;;;;;;;;;;;;;5120688;27;19919;-76
2021/11/24 14:29:23;;;;;;;;;;;;;;;;;;5128544;28;20015;-77
2021/11/24 14:31:58;;;;;;;;;;;;;;;;;;5128003;27;19916;-75
2021/11/24 14:34:25;;;;;;;;;;;;;;;;;;5134696;27;19923;-73
2021/11/24 14:36:52;;;;;;;;;;;;;;;;;;5134692;27;19977;-73
2021/11/24 14:39:17;;;;;;;;;;;;;;;;;;5126038;27;19949;-74
2021/11/24 14:41:45;;;;;;;;;;;;;;;;;;5124291;28;20271;-73
2021/11/24 14:44:11;;;;;;;;;;;;;;;;;;5114133;28;19916;-73
2021/11/24 14:46:37;;;;;;;;;;;;;;;;;;5116746;28;20298;-73
2021/11/24 14:49:02;;;;;;;;;;;;;;;;;;5122997;27;19922;-76
2021/11/24 14:51:28;;;;;;;;;;;;;;;;;;5114189;28;19919;-75
2021/11/24 14:53:53;;;;;;;;;;;;;;;;;;5138188;27;19919;-75
2021/11/24 14:56:20;;;;;;;;;;;;;;;;;;5113846;28;19924;-86
2021/11/24 14:58:46;;;;;;;;;;;;;;;;;;5120294;27;20370;-76
2021/11/24 15:01:11;;;;;;;;;;;;;;;;;;5119696;27;20054;-75
2021/11/24 15:03:37;;;;;;;;;;;;;;;;;;5121889;28;19959;-77
2021/11/24 15:06:03;;;;;;;;;;;;;;;;;;5122887;27;19923;-75
2021/11/24 15:08:29;;;;;;;;;;;;;;;;;;5123011;27;19919;-76
2021/11/24 15:10:55;;;;;;;;;;;;;;;;;;5125575;27;19916;-75
2021/11/24 15:13:21;;;;;;;;;;;;;;;;;;5122913;27;19926;-76
2021/11/24 15:15:46;;;;;;;;;;;;;;;;;;5122580;27;20016;-75
2021/11/24 15:18:12;;;;;;;;;;;;;;;;;;5126018;27;19945;-75
2021/11/24 15:20:38;;;;;;;;;;;;;;;;;;5128608;27;19920;-76
2021/11/24 15:23:05;;;;;;;;;;;;;;;;;;5125998;27;19954;-78
2021/11/24 15:25:30;;;;;;;;;;;;;;;;;;5121693;27;21782;-78
2021/11/24 15:27:56;;;;;;;;;;;;;;;;;;5123382;27;20014;-77
2021/11/24 15:30:21;;;;;;;;;;;;;;;;;;5126109;27;19922;-77
2021/11/24 15:32:47;;;;;;;;;;;;;;;;;;5121702;27;19963;-77
2021/11/24 15:35:12;;;;;;;;;;;;;;;;;;5118576;27;19923;-77
2021/11/24 15:37:38;;;;;;;;;;;;;;;;;;5123630;27;19920;-82
2021/11/24 15:40:04;;;;;;;;;;;;;;;;;;5123948;27;19916;-82
2021/11/24 15:42:29;;;;;;;;;;;;;;;;;;5118384;27;20028;-80
2021/11/24 15:44:57;;;;;;;;;;;;;;;;;;5120411;27;19927;-88
2021/11/24 15:47:25;;;;;;;;;;;;;;;;;;5119916;27;19938;-77
2021/11/24 15:49:52;;;;;;;;;;;;;;;;;;5117627;27;19935;-77
2021/11/24 15:52:18;;;;;;;;;;;;;;;;;;5124575;27;19924;-75
2021/11/24 15:54:44;;;;;;;;;;;;;;;;;;5135646;27;19916;-76
2021/11/24 15:57:11;;;;;;;;;;;;;;;;;;5137604;27;20019;-74
2021/11/24 15:59:37;;;;;;;;;;;;;;;;;;5138042;27;19922;-76
2021/11/24 16:02:03;;;;;;;;;;;;;;;;;;5137354;27;19916;-75
2021/11/24 16:04:29;;;;;;;;;;;;;;;;;;5136102;27;19915;-77
2021/11/24 16:06:54;;;;;;;;;;;;;;;;;;5135957;27;20377;-73
2021/11/24 16:09:20;;;;;;;;;;;;;;;;;;5137327;27;19927;-77
2021/11/24 16:11:45;;;;;;;;;;;;;;;;;;5137634;27;19950;-76
2021/11/24 16:14:10;;;;;;;;;;;;;;;;;;5137057;27;20389;-76
2021/11/24 16:16:39;;;;;;;;;;;;;;;;;;5137031;27;19920;-74
2021/11/24 16:19:12;;;;;;;;;;;;;;;;;;5138443;27;19998;-77
2021/11/24 16:21:38;;;;;;;;;;;;;;;;;;5161607;27;19930;-75
2021/11/24 16:24:03;;;;;;;;;;;;;;;;;;5149492;27;19916;-75
2021/11/24 16:26:29;;;;;;;;;;;;;;;;;;5136105;27;20298;-77
2021/11/24 16:28:54;;;;;;;;;;;;;;;;;;5137359;27;19922;-77
2021/11/24 16:31:20;;;;;;;;;;;;;;;;;;5136804;27;19922;-76
2021/11/24 16:33:46;;;;;;;;;;;;;;;;;;5137386;27;20330;-80
2021/11/24 16:36:11;;;;;;;;;;;;;;;;;;5136725;27;20408;-75
2021/11/24 16:38:37;;;;;;;;;;;;;;;;;;5135199;27;19971;-74
2021/11/24 16:41:02;;;;;;;;;;;;;;;;;;5136605;27;19915;-74
2021/11/24 16:43:28;;;;;;;;;;;;;;;;;;5135351;27;19979;-74
2021/11/24 16:45:55;;;;;;;;;;;;;;;;;;5136733;27;19915;-76
2021/11/24 16:48:23;;;;;;;;;;;;;;;;;;5135206;27;20007;-74